sensor_id;sensor_type;location;lat;lon;timestamp;temperature;humidity
1468;DHT22;727;48.892;9.544;2023-04-24T00:01:00;10.30;99.90
1468;DHT22;727;48.892;9.544;2023-04-24T00:03:29;10.30;99.90
1468;DHT22;727;48.892;9.544;2023-04-24T00:05:55;10.30;99.90
1468;DHT22;727;48.892;9.544;2023-04-24T00:08:24;10.30;99.90
1468;DHT22;727;48.892;9.544;2023-04-24T00:10:51;10.20;99.90
1468;DHT22;727;48.892;9.544;2023-04-24T00:13:18;10.30;99.90
1468;DHT22;727;48.892;9.544;2023-04-24T00:15:45;10.20;99.90
1468;DHT22;727;48.892;9.544;2023-04-24T00:18:11;10.30;99.90
1468;DHT22;727;48.892;9.544;2023-04-24T00:20:40;10.20;99.90
1468;DHT22;727;48.892;9.544;2023-04-24T00:23:06;10.20;99.90
1468;DHT22;727;48.892;9.544;2023-04-24T00:25:33;10.30;99.90
1468;DHT22;727;48.892;9.544;2023-04-24T00:28:00;10.30;99.90
1468;DHT22;727;48.892;9.544;2023-04-24T00:30:26;10.20;99.90
1468;DHT22;727;48.892;9.544;2023-04-24T00:32:54;10.20;99.90
1468;DHT22;727;48.892;9.544;2023-04-24T00:35:21;10.30;99.90
1468;DHT22;727;48.892;9.544;2023-04-24T00:37:50;10.30;99.90
1468;DHT22;727;48.892;9.544;2023-04-24T00:40:17;10.30;99.90
1468;DHT22;727;48.892;9.544;2023-04-24T00:42:44;10.40;99.90
1468;DHT22;727;48.892;9.544;2023-04-24T00:45:11;10.40;99.90
1468;DHT22;727;48.892;9.544;2023-04-24T00:47:38;10.40;99.90
1468;DHT22;727;48.892;9.544;2023-04-24T00:50:06;10.40;99.90
1468;DHT22;727;48.892;9.544;2023-04-24T00:52:33;10.50;99.90
1468;DHT22;727;48.892;9.544;2023-04-24T00:55:01;10.50;99.90
1468;DHT22;727;48.892;9.544;2023-04-24T00:57:28;10.50;99.90
1468;DHT22;727;48.892;9.544;2023-04-24T00:59:55;10.50;99.90
1468;DHT22;727;48.892;9.544;2023-04-24T01:02:22;10.40;99.90
1468;DHT22;727;48.892;9.544;2023-04-24T01:04:50;10.40;99.90
1468;DHT22;727;48.892;9.544;2023-04-24T01:07:18;10.40;99.90
1468;DHT22;727;48.892;9.544;2023-04-24T01:09:47;10.40;99.90
1468;DHT22;727;48.892;9.544;2023-04-24T01:12:17;10.50;99.90
1468;DHT22;727;48.892;9.544;2023-04-24T01:14:44;10.40;99.90
1468;DHT22;727;48.892;9.544;2023-04-24T01:17:11;10.50;99.90
1468;DHT22;727;48.892;9.544;2023-04-24T01:19:38;10.40;99.90
1468;DHT22;727;48.892;9.544;2023-04-24T01:22:10;10.40;99.90
1468;DHT22;727;48.892;9.544;2023-04-24T01:24:37;10.40;99.90
1468;DHT22;727;48.892;9.544;2023-04-24T01:27:04;10.40;99.90
1468;DHT22;727;48.892;9.544;2023-04-24T01:29:31;10.40;99.90
1468;DHT22;727;48.892;9.544;2023-04-24T01:31:58;10.40;99.90
1468;DHT22;727;48.892;9.544;2023-04-24T01:34:25;10.40;99.90
1468;DHT22;727;48.892;9.544;2023-04-24T01:36:52;10.40;99.90
1468;DHT22;727;48.892;9.544;2023-04-24T01:39:20;10.40;99.90
1468;DHT22;727;48.892;9.544;2023-04-24T01:41:48;10.40;99.90
1468;DHT22;727;48.892;9.544;2023-04-24T01:44:15;10.40;99.90
1468;DHT22;727;48.892;9.544;2023-04-24T01:46:42;10.40;99.90
1468;DHT22;727;48.892;9.544;2023-04-24T01:49:10;10.40;99.90
1468;DHT22;727;48.892;9.544;2023-04-24T01:51:37;10.40;99.90
1468;DHT22;727;48.892;9.544;2023-04-24T01:54:03;10.50;99.90
1468;DHT22;727;48.892;9.544;2023-04-24T01:56:33;10.50;99.90
1468;DHT22;727;48.892;9.544;2023-04-24T01:59:02;10.40;99.90
1468;DHT22;727;48.892;9.544;2023-04-24T02:01:33;10.40;99.90
1468;DHT22;727;48.892;9.544;2023-04-24T02:04:00;10.40;99.90
1468;DHT22;727;48.892;9.544;2023-04-24T02:06:27;10.40;99.90
1468;DHT22;727;48.892;9.544;2023-04-24T02:08:54;10.30;99.90
1468;DHT22;727;48.892;9.544;2023-04-24T02:11:20;10.30;99.90
1468;DHT22;727;48.892;9.544;2023-04-24T02:13:49;10.30;99.90
1468;DHT22;727;48.892;9.544;2023-04-24T02:16:17;10.20;99.90
1468;DHT22;727;48.892;9.544;2023-04-24T02:18:44;10.20;99.90
1468;DHT22;727;48.892;9.544;2023-04-24T02:21:10;10.20;99.90
1468;DHT22;727;48.892;9.544;2023-04-24T02:23:37;10.10;99.90
1468;DHT22;727;48.892;9.544;2023-04-24T02:26:04;10.10;99.90
1468;DHT22;727;48.892;9.544;2023-04-24T02:28:31;10.10;99.90
1468;DHT22;727;48.892;9.544;2023-04-24T02:30:59;10.10;99.90
1468;DHT22;727;48.892;9.544;2023-04-24T02:33:26;10.00;99.90
1468;DHT22;727;48.892;9.544;2023-04-24T02:35:53;10.00;99.90
1468;DHT22;727;48.892;9.544;2023-04-24T02:38:19;9.90;99.90
1468;DHT22;727;48.892;9.544;2023-04-24T02:40:46;9.90;99.90
1468;DHT22;727;48.892;9.544;2023-04-24T02:43:13;9.90;99.90
1468;DHT22;727;48.892;9.544;2023-04-24T02:45:39;9.90;99.90
1468;DHT22;727;48.892;9.544;2023-04-24T02:48:08;9.90;99.90
1468;DHT22;727;48.892;9.544;2023-04-24T02:50:34;9.90;99.90
1468;DHT22;727;48.892;9.544;2023-04-24T02:53:01;9.90;99.90
1468;DHT22;727;48.892;9.544;2023-04-24T02:55:28;9.90;99.90
1468;DHT22;727;48.892;9.544;2023-04-24T02:57:55;9.90;99.90
1468;DHT22;727;48.892;9.544;2023-04-24T03:00:22;9.90;99.90
1468;DHT22;727;48.892;9.544;2023-04-24T03:02:49;9.90;99.90
1468;DHT22;727;48.892;9.544;2023-04-24T03:05:17;9.90;99.90
1468;DHT22;727;48.892;9.544;2023-04-24T03:07:44;9.90;99.90
1468;DHT22;727;48.892;9.544;2023-04-24T03:10:11;9.90;99.90
1468;DHT22;727;48.892;9.544;2023-04-24T03:12:37;10.00;99.90
1468;DHT22;727;48.892;9.544;2023-04-24T03:15:05;10.00;99.90
1468;DHT22;727;48.892;9.544;2023-04-24T03:17:32;10.10;99.90
1468;DHT22;727;48.892;9.544;2023-04-24T03:19:58;10.10;99.90
1468;DHT22;727;48.892;9.544;2023-04-24T03:22:26;10.10;99.90
1468;DHT22;727;48.892;9.544;2023-04-24T03:24:53;10.10;99.90
1468;DHT22;727;48.892;9.544;2023-04-24T03:27:20;10.00;99.90
1468;DHT22;727;48.892;9.544;2023-04-24T03:29:47;10.10;99.90
1468;DHT22;727;48.892;9.544;2023-04-24T03:32:13;10.10;99.90
1468;DHT22;727;48.892;9.544;2023-04-24T03:34:40;10.10;99.90
1468;DHT22;727;48.892;9.544;2023-04-24T03:37:07;10.10;99.90
1468;DHT22;727;48.892;9.544;2023-04-24T03:39:35;10.10;99.90
1468;DHT22;727;48.892;9.544;2023-04-24T03:42:02;10.10;99.90
1468;DHT22;727;48.892;9.544;2023-04-24T03:44:28;10.10;99.90
1468;DHT22;727;48.892;9.544;2023-04-24T03:46:55;10.00;99.90
1468;DHT22;727;48.892;9.544;2023-04-24T03:49:22;10.00;99.90
1468;DHT22;727;48.892;9.544;2023-04-24T03:51:48;10.00;99.90
1468;DHT22;727;48.892;9.544;2023-04-24T03:54:16;10.00;99.90
1468;DHT22;727;48.892;9.544;2023-04-24T03:56:44;10.00;99.90
1468;DHT22;727;48.892;9.544;2023-04-24T03:59:11;10.00;99.90
1468;DHT22;727;48.892;9.544;2023-04-24T04:01:39;10.00;99.90
1468;DHT22;727;48.892;9.544;2023-04-24T04:04:05;10.00;99.90
1468;DHT22;727;48.892;9.544;2023-04-24T04:06:33;10.00;99.90
1468;DHT22;727;48.892;9.544;2023-04-24T04:09:01;10.00;99.90
1468;DHT22;727;48.892;9.544;2023-04-24T04:11:29;10.00;99.90
1468;DHT22;727;48.892;9.544;2023-04-24T04:13:57;10.00;99.90
1468;DHT22;727;48.892;9.544;2023-04-24T04:16:24;9.90;99.90
1468;DHT22;727;48.892;9.544;2023-04-24T04:18:50;9.90;99.90
1468;DHT22;727;48.892;9.544;2023-04-24T04:21:17;9.90;99.90
1468;DHT22;727;48.892;9.544;2023-04-24T04:23:44;9.80;99.90
1468;DHT22;727;48.892;9.544;2023-04-24T04:26:11;9.80;99.90
1468;DHT22;727;48.892;9.544;2023-04-24T04:28:39;9.80;99.90
1468;DHT22;727;48.892;9.544;2023-04-24T04:31:07;9.90;99.90
1468;DHT22;727;48.892;9.544;2023-04-24T04:33:34;9.90;99.90
1468;DHT22;727;48.892;9.544;2023-04-24T04:36:03;9.90;99.90
1468;DHT22;727;48.892;9.544;2023-04-24T04:38:30;9.90;99.90
1468;DHT22;727;48.892;9.544;2023-04-24T04:40:57;10.00;99.90
1468;DHT22;727;48.892;9.544;2023-04-24T04:43:24;10.00;99.90
1468;DHT22;727;48.892;9.544;2023-04-24T04:45:52;10.00;99.90
1468;DHT22;727;48.892;9.544;2023-04-24T04:48:21;10.00;99.90
1468;DHT22;727;48.892;9.544;2023-04-24T04:50:48;10.10;99.90
1468;DHT22;727;48.892;9.544;2023-04-24T04:53:15;10.20;99.90
1468;DHT22;727;48.892;9.544;2023-04-24T04:55:42;10.20;99.90
1468;DHT22;727;48.892;9.544;2023-04-24T04:58:09;10.30;99.90
1468;DHT22;727;48.892;9.544;2023-04-24T05:00:35;10.30;99.90
1468;DHT22;727;48.892;9.544;2023-04-24T05:03:03;10.20;99.90
1468;DHT22;727;48.892;9.544;2023-04-24T05:05:31;10.20;99.90
1468;DHT22;727;48.892;9.544;2023-04-24T05:07:58;10.10;99.90
1468;DHT22;727;48.892;9.544;2023-04-24T05:10:25;10.10;99.90
1468;DHT22;727;48.892;9.544;2023-04-24T05:12:52;10.10;99.90
1468;DHT22;727;48.892;9.544;2023-04-24T05:15:19;10.20;99.90
1468;DHT22;727;48.892;9.544;2023-04-24T05:17:45;10.20;99.90
1468;DHT22;727;48.892;9.544;2023-04-24T05:20:12;10.20;99.90
1468;DHT22;727;48.892;9.544;2023-04-24T05:22:41;10.10;99.90
1468;DHT22;727;48.892;9.544;2023-04-24T05:25:08;10.10;99.90
1468;DHT22;727;48.892;9.544;2023-04-24T05:27:35;10.10;99.90
1468;DHT22;727;48.892;9.544;2023-04-24T05:30:02;10.10;99.90
1468;DHT22;727;48.892;9.544;2023-04-24T05:32:30;10.20;99.90
1468;DHT22;727;48.892;9.544;2023-04-24T05:34:56;10.20;99.90
1468;DHT22;727;48.892;9.544;2023-04-24T05:37:23;10.20;99.90
1468;DHT22;727;48.892;9.544;2023-04-24T05:39:51;10.20;99.90
1468;DHT22;727;48.892;9.544;2023-04-24T05:42:18;10.30;99.90
1468;DHT22;727;48.892;9.544;2023-04-24T05:44:45;10.30;99.90
1468;DHT22;727;48.892;9.544;2023-04-24T05:47:11;10.40;99.90
1468;DHT22;727;48.892;9.544;2023-04-24T05:49:41;10.50;99.90
1468;DHT22;727;48.892;9.544;2023-04-24T05:52:20;10.50;99.90
1468;DHT22;727;48.892;9.544;2023-04-24T05:54:47;10.60;99.90
1468;DHT22;727;48.892;9.544;2023-04-24T05:57:15;10.60;99.90
1468;DHT22;727;48.892;9.544;2023-04-24T05:59:42;10.60;99.90
1468;DHT22;727;48.892;9.544;2023-04-24T06:02:08;10.70;99.90
1468;DHT22;727;48.892;9.544;2023-04-24T06:04:35;10.70;99.90
1468;DHT22;727;48.892;9.544;2023-04-24T06:07:02;10.70;99.90
1468;DHT22;727;48.892;9.544;2023-04-24T06:09:29;10.80;99.90
1468;DHT22;727;48.892;9.544;2023-04-24T06:11:55;10.80;99.90
1468;DHT22;727;48.892;9.544;2023-04-24T06:14:25;11.00;99.90
1468;DHT22;727;48.892;9.544;2023-04-24T06:16:51;11.00;99.90
1468;DHT22;727;48.892;9.544;2023-04-24T06:19:18;11.10;99.90
1468;DHT22;727;48.892;9.544;2023-04-24T06:21:45;11.10;99.90
1468;DHT22;727;48.892;9.544;2023-04-24T06:24:14;11.10;99.90
1468;DHT22;727;48.892;9.544;2023-04-24T06:26:41;11.30;99.90
1468;DHT22;727;48.892;9.544;2023-04-24T06:29:08;11.40;99.90
1468;DHT22;727;48.892;9.544;2023-04-24T06:31:36;11.50;99.90
1468;DHT22;727;48.892;9.544;2023-04-24T06:34:03;11.60;99.90
1468;DHT22;727;48.892;9.544;2023-04-24T06:36:30;11.60;99.90
1468;DHT22;727;48.892;9.544;2023-04-24T06:38:57;11.60;99.90
1468;DHT22;727;48.892;9.544;2023-04-24T06:41:24;11.60;99.90
1468;DHT22;727;48.892;9.544;2023-04-24T06:43:55;11.70;99.90
1468;DHT22;727;48.892;9.544;2023-04-24T06:46:22;12.10;99.90
1468;DHT22;727;48.892;9.544;2023-04-24T06:48:53;12.80;99.90
1468;DHT22;727;48.892;9.544;2023-04-24T06:51:21;13.60;99.90
1468;DHT22;727;48.892;9.544;2023-04-24T06:53:48;14.20;99.90
1468;DHT22;727;48.892;9.544;2023-04-24T06:56:15;14.50;99.90
1468;DHT22;727;48.892;9.544;2023-04-24T06:58:42;14.70;99.90
1468;DHT22;727;48.892;9.544;2023-04-24T07:01:10;14.80;99.90
1468;DHT22;727;48.892;9.544;2023-04-24T07:03:36;14.90;99.90
1468;DHT22;727;48.892;9.544;2023-04-24T07:06:05;14.90;99.90
1468;DHT22;727;48.892;9.544;2023-04-24T07:08:32;15.00;99.90
1468;DHT22;727;48.892;9.544;2023-04-24T07:10:59;15.10;99.90
1468;DHT22;727;48.892;9.544;2023-04-24T07:13:26;15.00;99.10
1468;DHT22;727;48.892;9.544;2023-04-24T07:15:53;14.50;98.00
1468;DHT22;727;48.892;9.544;2023-04-24T07:18:22;14.40;99.00
1468;DHT22;727;48.892;9.544;2023-04-24T07:20:48;14.60;99.20
1468;DHT22;727;48.892;9.544;2023-04-24T07:23:17;14.90;99.20
1468;DHT22;727;48.892;9.544;2023-04-24T07:25:44;15.60;98.30
1468;DHT22;727;48.892;9.544;2023-04-24T07:28:11;15.70;97.00
1468;DHT22;727;48.892;9.544;2023-04-24T07:30:38;16.20;95.80
1468;DHT22;727;48.892;9.544;2023-04-24T07:33:05;15.90;94.70
1468;DHT22;727;48.892;9.544;2023-04-24T07:35:33;16.00;94.30
1468;DHT22;727;48.892;9.544;2023-04-24T07:38:01;15.90;92.80
1468;DHT22;727;48.892;9.544;2023-04-24T07:40:29;15.60;93.30
1468;DHT22;727;48.892;9.544;2023-04-24T07:42:55;15.20;93.10
1468;DHT22;727;48.892;9.544;2023-04-24T07:45:22;15.00;93.40
1468;DHT22;727;48.892;9.544;2023-04-24T07:47:51;14.70;94.50
1468;DHT22;727;48.892;9.544;2023-04-24T07:50:19;14.30;94.00
1468;DHT22;727;48.892;9.544;2023-04-24T07:52:46;13.80;95.10
1468;DHT22;727;48.892;9.544;2023-04-24T07:55:13;13.60;95.50
1468;DHT22;727;48.892;9.544;2023-04-24T07:57:41;13.30;96.50
1468;DHT22;727;48.892;9.544;2023-04-24T08:00:08;13.10;96.90
1468;DHT22;727;48.892;9.544;2023-04-24T08:02:36;13.00;97.30
1468;DHT22;727;48.892;9.544;2023-04-24T08:05:03;13.20;97.90
1468;DHT22;727;48.892;9.544;2023-04-24T08:07:29;13.50;96.80
1468;DHT22;727;48.892;9.544;2023-04-24T08:09:56;13.70;96.30
1468;DHT22;727;48.892;9.544;2023-04-24T08:12:24;14.00;95.70
1468;DHT22;727;48.892;9.544;2023-04-24T08:14:53;14.20;95.40
1468;DHT22;727;48.892;9.544;2023-04-24T08:17:19;14.20;95.30
1468;DHT22;727;48.892;9.544;2023-04-24T08:19:46;14.00;94.30
1468;DHT22;727;48.892;9.544;2023-04-24T08:22:14;13.80;94.10
1468;DHT22;727;48.892;9.544;2023-04-24T08:24:41;13.60;94.50
1468;DHT22;727;48.892;9.544;2023-04-24T08:27:08;13.60;94.70
1468;DHT22;727;48.892;9.544;2023-04-24T08:29:35;13.70;93.90
1468;DHT22;727;48.892;9.544;2023-04-24T08:32:03;13.90;93.50
1468;DHT22;727;48.892;9.544;2023-04-24T08:34:30;13.90;93.00
1468;DHT22;727;48.892;9.544;2023-04-24T08:36:56;14.10;93.10
1468;DHT22;727;48.892;9.544;2023-04-24T08:39:23;14.50;92.70
1468;DHT22;727;48.892;9.544;2023-04-24T08:41:50;14.60;92.20
1468;DHT22;727;48.892;9.544;2023-04-24T08:44:19;14.50;91.70
1468;DHT22;727;48.892;9.544;2023-04-24T08:46:48;14.50;92.80
1468;DHT22;727;48.892;9.544;2023-04-24T08:49:16;14.10;91.80
1468;DHT22;727;48.892;9.544;2023-04-24T08:51:44;13.90;92.70
1468;DHT22;727;48.892;9.544;2023-04-24T08:54:12;13.70;93.60
1468;DHT22;727;48.892;9.544;2023-04-24T08:56:40;13.60;92.80
1468;DHT22;727;48.892;9.544;2023-04-24T08:59:10;13.50;93.30
1468;DHT22;727;48.892;9.544;2023-04-24T09:01:38;13.50;92.00
1468;DHT22;727;48.892;9.544;2023-04-24T09:04:07;13.80;91.50
1468;DHT22;727;48.892;9.544;2023-04-24T09:06:36;14.00;91.10
1468;DHT22;727;48.892;9.544;2023-04-24T09:09:03;14.80;89.90
1468;DHT22;727;48.892;9.544;2023-04-24T09:11:31;15.20;84.30
1468;DHT22;727;48.892;9.544;2023-04-24T09:13:58;15.80;84.70
1468;DHT22;727;48.892;9.544;2023-04-24T09:16:26;16.40;79.60
1468;DHT22;727;48.892;9.544;2023-04-24T09:18:55;16.30;75.40
1468;DHT22;727;48.892;9.544;2023-04-24T09:21:22;15.90;76.90
1468;DHT22;727;48.892;9.544;2023-04-24T09:23:59;15.00;77.10
1468;DHT22;727;48.892;9.544;2023-04-24T09:26:29;14.50;79.50
1468;DHT22;727;48.892;9.544;2023-04-24T09:28:57;14.10;80.70
1468;DHT22;727;48.892;9.544;2023-04-24T09:31:24;14.00;82.90
1468;DHT22;727;48.892;9.544;2023-04-24T09:33:57;14.20;83.90
1468;DHT22;727;48.892;9.544;2023-04-24T09:36:28;14.40;80.40
1468;DHT22;727;48.892;9.544;2023-04-24T09:38:59;14.30;80.80
1468;DHT22;727;48.892;9.544;2023-04-24T09:41:27;14.30;80.90
1468;DHT22;727;48.892;9.544;2023-04-24T09:43:55;14.40;81.20
1468;DHT22;727;48.892;9.544;2023-04-24T09:46:29;14.20;80.50
1468;DHT22;727;48.892;9.544;2023-04-24T09:48:57;14.00;81.20
1468;DHT22;727;48.892;9.544;2023-04-24T09:51:34;13.70;82.20
1468;DHT22;727;48.892;9.544;2023-04-24T09:54:03;13.60;84.10
1468;DHT22;727;48.892;9.544;2023-04-24T09:56:33;13.40;83.80
1468;DHT22;727;48.892;9.544;2023-04-24T09:59:06;13.40;85.10
1468;DHT22;727;48.892;9.544;2023-04-24T10:01:33;13.00;84.10
1468;DHT22;727;48.892;9.544;2023-04-24T10:04:00;12.80;88.10
1468;DHT22;727;48.892;9.544;2023-04-24T10:06:33;12.60;89.80
1468;DHT22;727;48.892;9.544;2023-04-24T10:09:00;12.70;89.30
1468;DHT22;727;48.892;9.544;2023-04-24T10:11:29;13.00;88.20
1468;DHT22;727;48.892;9.544;2023-04-24T10:13:56;13.40;86.80
1468;DHT22;727;48.892;9.544;2023-04-24T10:16:24;14.10;85.60
1468;DHT22;727;48.892;9.544;2023-04-24T10:18:52;14.60;84.10
1468;DHT22;727;48.892;9.544;2023-04-24T10:21:19;15.20;81.90
1468;DHT22;727;48.892;9.544;2023-04-24T10:23:48;15.40;79.40
1468;DHT22;727;48.892;9.544;2023-04-24T10:26:16;15.20;80.30
1468;DHT22;727;48.892;9.544;2023-04-24T10:28:47;15.10;81.50
1468;DHT22;727;48.892;9.544;2023-04-24T10:31:14;14.80;80.30
1468;DHT22;727;48.892;9.544;2023-04-24T10:33:43;14.20;81.30
1468;DHT22;727;48.892;9.544;2023-04-24T10:36:10;14.00;82.20
1468;DHT22;727;48.892;9.544;2023-04-24T10:38:39;13.80;81.70
1468;DHT22;727;48.892;9.544;2023-04-24T10:41:07;13.70;81.50
1468;DHT22;727;48.892;9.544;2023-04-24T10:43:36;13.80;81.70
1468;DHT22;727;48.892;9.544;2023-04-24T10:46:05;14.00;81.00
1468;DHT22;727;48.892;9.544;2023-04-24T10:48:52;14.20;79.30
1468;DHT22;727;48.892;9.544;2023-04-24T10:51:22;14.00;78.40
1468;DHT22;727;48.892;9.544;2023-04-24T10:53:50;13.90;78.30
1468;DHT22;727;48.892;9.544;2023-04-24T10:56:18;13.70;78.20
1468;DHT22;727;48.892;9.544;2023-04-24T10:58:51;13.60;79.80
1468;DHT22;727;48.892;9.544;2023-04-24T11:01:25;13.60;80.80
1468;DHT22;727;48.892;9.544;2023-04-24T11:03:55;13.60;80.80
1468;DHT22;727;48.892;9.544;2023-04-24T11:06:29;13.70;81.70
1468;DHT22;727;48.892;9.544;2023-04-24T11:09:02;13.80;82.20
1468;DHT22;727;48.892;9.544;2023-04-24T11:11:29;13.60;81.90
1468;DHT22;727;48.892;9.544;2023-04-24T11:14:04;13.50;83.40
1468;DHT22;727;48.892;9.544;2023-04-24T11:16:35;13.20;85.00
1468;DHT22;727;48.892;9.544;2023-04-24T11:19:05;13.10;86.30
1468;DHT22;727;48.892;9.544;2023-04-24T11:21:39;12.80;84.60
1468;DHT22;727;48.892;9.544;2023-04-24T11:24:37;12.70;85.80
1468;DHT22;727;48.892;9.544;2023-04-24T11:27:18;13.00;85.50
1468;DHT22;727;48.892;9.544;2023-04-24T11:29:47;13.40;84.20
1468;DHT22;727;48.892;9.544;2023-04-24T11:32:24;13.70;81.40
1468;DHT22;727;48.892;9.544;2023-04-24T11:34:56;14.20;81.70
1468;DHT22;727;48.892;9.544;2023-04-24T11:37:23;15.10;78.20
1468;DHT22;727;48.892;9.544;2023-04-24T11:39:53;15.50;77.80
1468;DHT22;727;48.892;9.544;2023-04-24T11:42:21;15.70;76.10
1468;DHT22;727;48.892;9.544;2023-04-24T11:44:48;15.60;74.90
1468;DHT22;727;48.892;9.544;2023-04-24T11:47:15;15.20;74.80
1468;DHT22;727;48.892;9.544;2023-04-24T11:49:43;14.70;75.50
1468;DHT22;727;48.892;9.544;2023-04-24T11:52:10;14.60;78.10
1468;DHT22;727;48.892;9.544;2023-04-24T11:54:37;14.60;77.90
1468;DHT22;727;48.892;9.544;2023-04-24T11:57:04;14.70;77.40
1468;DHT22;727;48.892;9.544;2023-04-24T11:59:35;14.90;78.40
1468;DHT22;727;48.892;9.544;2023-04-24T12:02:03;15.00;77.30
1468;DHT22;727;48.892;9.544;2023-04-24T12:04:38;15.00;75.10
1468;DHT22;727;48.892;9.544;2023-04-24T12:07:07;15.10;75.60
1468;DHT22;727;48.892;9.544;2023-04-24T12:09:41;14.80;75.80
1468;DHT22;727;48.892;9.544;2023-04-24T12:12:10;14.80;76.30
1468;DHT22;727;48.892;9.544;2023-04-24T12:14:45;14.80;76.80
1468;DHT22;727;48.892;9.544;2023-04-24T12:17:11;14.80;77.10
1468;DHT22;727;48.892;9.544;2023-04-24T12:19:45;14.70;76.40
1468;DHT22;727;48.892;9.544;2023-04-24T12:22:14;14.50;79.50
1468;DHT22;727;48.892;9.544;2023-04-24T12:24:59;14.30;80.90
1468;DHT22;727;48.892;9.544;2023-04-24T12:27:26;14.10;82.70
1468;DHT22;727;48.892;9.544;2023-04-24T12:29:53;14.10;83.40
1468;DHT22;727;48.892;9.544;2023-04-24T12:32:20;14.20;83.30
1468;DHT22;727;48.892;9.544;2023-04-24T12:34:48;14.30;81.40
1468;DHT22;727;48.892;9.544;2023-04-24T12:37:17;14.70;80.90
1468;DHT22;727;48.892;9.544;2023-04-24T12:39:58;15.00;79.40
1468;DHT22;727;48.892;9.544;2023-04-24T12:42:26;14.90;78.10
1468;DHT22;727;48.892;9.544;2023-04-24T12:44:57;14.90;79.60
1468;DHT22;727;48.892;9.544;2023-04-24T12:47:25;14.80;77.90
1468;DHT22;727;48.892;9.544;2023-04-24T12:49:52;14.60;78.40
1468;DHT22;727;48.892;9.544;2023-04-24T12:52:22;14.60;78.80
1468;DHT22;727;48.892;9.544;2023-04-24T12:54:49;14.40;78.90
1468;DHT22;727;48.892;9.544;2023-04-24T12:57:18;14.30;81.00
1468;DHT22;727;48.892;9.544;2023-04-24T12:59:45;14.10;85.70
1468;DHT22;727;48.892;9.544;2023-04-24T13:02:12;13.90;88.70
1468;DHT22;727;48.892;9.544;2023-04-24T13:04:39;13.60;90.80
1468;DHT22;727;48.892;9.544;2023-04-24T13:07:06;13.30;91.40
1468;DHT22;727;48.892;9.544;2023-04-24T13:09:34;13.10;91.90
1468;DHT22;727;48.892;9.544;2023-04-24T13:12:02;13.00;92.60
1468;DHT22;727;48.892;9.544;2023-04-24T13:14:28;12.80;91.80
1468;DHT22;727;48.892;9.544;2023-04-24T13:16:55;12.70;92.60
1468;DHT22;727;48.892;9.544;2023-04-24T13:19:24;12.60;91.80
1468;DHT22;727;48.892;9.544;2023-04-24T13:21:51;12.70;92.50
1468;DHT22;727;48.892;9.544;2023-04-24T13:24:18;12.70;92.20
1468;DHT22;727;48.892;9.544;2023-04-24T13:26:46;12.70;92.40
1468;DHT22;727;48.892;9.544;2023-04-24T13:29:13;13.10;92.90
1468;DHT22;727;48.892;9.544;2023-04-24T13:31:40;13.70;92.30
1468;DHT22;727;48.892;9.544;2023-04-24T13:34:07;13.90;90.90
1468;DHT22;727;48.892;9.544;2023-04-24T13:36:34;13.70;89.60
1468;DHT22;727;48.892;9.544;2023-04-24T13:39:00;13.40;90.60
1468;DHT22;727;48.892;9.544;2023-04-24T13:41:29;13.40;91.60
1468;DHT22;727;48.892;9.544;2023-04-24T13:43:58;13.80;92.30
1468;DHT22;727;48.892;9.544;2023-04-24T13:46:25;14.30;90.60
1468;DHT22;727;48.892;9.544;2023-04-24T13:48:51;14.60;88.10
1468;DHT22;727;48.892;9.544;2023-04-24T13:51:19;14.70;87.60
1468;DHT22;727;48.892;9.544;2023-04-24T13:53:46;14.70;86.40
1468;DHT22;727;48.892;9.544;2023-04-24T13:56:13;14.70;86.30
1468;DHT22;727;48.892;9.544;2023-04-24T13:58:40;14.60;86.20
1468;DHT22;727;48.892;9.544;2023-04-24T14:01:08;14.40;87.00
1468;DHT22;727;48.892;9.544;2023-04-24T14:03:37;14.50;85.40
1468;DHT22;727;48.892;9.544;2023-04-24T14:06:06;14.60;84.80
1468;DHT22;727;48.892;9.544;2023-04-24T14:08:33;14.90;84.80
1468;DHT22;727;48.892;9.544;2023-04-24T14:11:00;14.80;81.90
1468;DHT22;727;48.892;9.544;2023-04-24T14:13:27;14.60;81.80
1468;DHT22;727;48.892;9.544;2023-04-24T14:15:54;14.40;82.60
1468;DHT22;727;48.892;9.544;2023-04-24T14:18:23;14.40;83.50
1468;DHT22;727;48.892;9.544;2023-04-24T14:20:49;14.20;83.70
1468;DHT22;727;48.892;9.544;2023-04-24T14:23:16;14.00;84.70
1468;DHT22;727;48.892;9.544;2023-04-24T14:25:43;13.70;86.00
1468;DHT22;727;48.892;9.544;2023-04-24T14:28:10;13.70;86.50
1468;DHT22;727;48.892;9.544;2023-04-24T14:30:37;13.50;86.80
1468;DHT22;727;48.892;9.544;2023-04-24T14:33:06;13.60;87.90
1468;DHT22;727;48.892;9.544;2023-04-24T14:35:35;13.50;87.80
1468;DHT22;727;48.892;9.544;2023-04-24T14:38:02;13.50;88.90
1468;DHT22;727;48.892;9.544;2023-04-24T14:40:29;13.70;89.00
1468;DHT22;727;48.892;9.544;2023-04-24T14:42:56;13.90;86.90
1468;DHT22;727;48.892;9.544;2023-04-24T14:45:23;13.90;86.60
1468;DHT22;727;48.892;9.544;2023-04-24T14:47:50;14.00;86.20
1468;DHT22;727;48.892;9.544;2023-04-24T14:50:18;14.10;86.60
1468;DHT22;727;48.892;9.544;2023-04-24T14:52:46;14.20;86.20
1468;DHT22;727;48.892;9.544;2023-04-24T14:55:15;14.10;86.30
1468;DHT22;727;48.892;9.544;2023-04-24T14:57:42;14.00;87.20
1468;DHT22;727;48.892;9.544;2023-04-24T15:00:10;14.00;87.80
1468;DHT22;727;48.892;9.544;2023-04-24T15:02:37;14.00;87.60
1468;DHT22;727;48.892;9.544;2023-04-24T15:05:07;14.10;88.10
1468;DHT22;727;48.892;9.544;2023-04-24T15:07:35;14.10;86.30
1468;DHT22;727;48.892;9.544;2023-04-24T15:10:04;14.20;85.30
1468;DHT22;727;48.892;9.544;2023-04-24T15:12:32;14.40;84.10
1468;DHT22;727;48.892;9.544;2023-04-24T15:14:59;14.40;83.40
1468;DHT22;727;48.892;9.544;2023-04-24T15:17:27;14.50;83.90
1468;DHT22;727;48.892;9.544;2023-04-24T15:19:54;14.40;82.50
1468;DHT22;727;48.892;9.544;2023-04-24T15:22:21;14.30;83.00
1468;DHT22;727;48.892;9.544;2023-04-24T15:24:49;14.20;83.20
1468;DHT22;727;48.892;9.544;2023-04-24T15:27:18;14.10;84.30
1468;DHT22;727;48.892;9.544;2023-04-24T15:29:45;14.30;83.60
1468;DHT22;727;48.892;9.544;2023-04-24T15:32:12;14.60;84.30
1468;DHT22;727;48.892;9.544;2023-04-24T15:34:39;14.90;83.40
1468;DHT22;727;48.892;9.544;2023-04-24T15:37:06;15.00;82.60
1468;DHT22;727;48.892;9.544;2023-04-24T15:39:33;15.00;82.50
1468;DHT22;727;48.892;9.544;2023-04-24T15:42:00;14.60;80.90
1468;DHT22;727;48.892;9.544;2023-04-24T15:44:28;14.30;82.10
1468;DHT22;727;48.892;9.544;2023-04-24T15:46:55;14.30;83.00
1468;DHT22;727;48.892;9.544;2023-04-24T15:49:23;14.30;82.10
1468;DHT22;727;48.892;9.544;2023-04-24T15:51:50;14.10;80.30
1468;DHT22;727;48.892;9.544;2023-04-24T15:54:17;13.90;80.20
1468;DHT22;727;48.892;9.544;2023-04-24T15:56:44;13.70;80.20
1468;DHT22;727;48.892;9.544;2023-04-24T15:59:10;13.60;81.20
1468;DHT22;727;48.892;9.544;2023-04-24T16:01:39;13.60;81.70
1468;DHT22;727;48.892;9.544;2023-04-24T16:04:06;13.80;82.80
1468;DHT22;727;48.892;9.544;2023-04-24T16:06:33;14.10;82.10
1468;DHT22;727;48.892;9.544;2023-04-24T16:09:00;14.30;80.80
1468;DHT22;727;48.892;9.544;2023-04-24T16:11:26;14.20;80.80
1468;DHT22;727;48.892;9.544;2023-04-24T16:13:53;14.20;80.40
1468;DHT22;727;48.892;9.544;2023-04-24T16:16:20;14.10;81.40
1468;DHT22;727;48.892;9.544;2023-04-24T16:18:49;14.20;81.40
1468;DHT22;727;48.892;9.544;2023-04-24T16:21:19;14.10;81.50
1468;DHT22;727;48.892;9.544;2023-04-24T16:23:46;14.00;82.10